KRST/RST METAR and TAF weather

Enter ICAO airport designator
Station Type Date Time Source
KRST METAR 2020/04/03 23:13 UTC NOAA

KRST 032313Z 32013KT 3SM -SN BR BKN012 OVC019 M03/M05 A3013 RMK AO2 P0000 T10331050


Station Type Date Time Source
KRST Decoded METAR 2020/04/03 23:13 UTC NOAA

ROCHESTER INTERNATIONAL AIRPORT , MN, United States (KRST) 43-54N 092-30W 403M
Apr 03, 2020 - 07:13 PM EDT / 2020.04.03 2313 UTC
Wind: from the NW (320 degrees) at 15 MPH (13 KT):0
Visibility: 3 mile(s):0
Sky conditions: overcast
Weather: light snow; mist
Precipitation last hour: A trace
Temperature: 26.1 F (-3.3 C)
Windchill: 14 F (-10 C):1
Dew Point: 23.0 F (-5.0 C)
Relative Humidity: 87%
Pressure (altimeter): 30.13 in. Hg (1020 hPa)
ob: KRST 032313Z 32013KT 3SM -SN BR BKN012 OVC019 M03/M05 A3013 RMK AO2 P0000 T10331050
cycle: 23

Station Type Date Time Source
KRST TAF 2020/04/03 20:42 UTC NOAA

TAF KRST 031941Z 0320/0418 32016G22KT 3SM -FZRASN BR BKN009
FM032200 32012G20KT P6SM BKN013
FM040000 32012G21KT P6SM BKN023
FM040200 32012KT P6SM SCT035

Example: see airport list